Terminal Aerodrome Forecast
Issued by NWS

Current Version | Previous Version | Text Only | Print | Product List | Glossary Off
Versions: 1 2 3 4 5 6 7 8 9 10 11

110
FTUS41 KILN 251731
TAFLCK
TAF
KLCK 251731Z 2518/2618 11007KT P6SM FEW035
     FM260000 10003KT P6SM FEW200
     FM260700 VRB02KT 3SM BR SCT200
     FM261400 16010KT P6SM FEW200=

USA.gov is the U.S. government's official web portal to all federal, state and local government web resources and services.